createdAt,value
2023-05-19T00:00:33.371Z,13.18
2023-05-19T00:03:00.722Z,13.16
2023-05-19T00:05:28.220Z,13.16
2023-05-19T00:07:59.761Z,13.12
2023-05-19T00:10:31.639Z,13.12
2023-05-19T00:12:59.266Z,13.13
2023-05-19T00:15:26.480Z,13.11
2023-05-19T00:17:55.649Z,13.10
2023-05-19T00:20:23.014Z,13.09
2023-05-19T00:22:51.227Z,13.08
2023-05-19T00:25:18.175Z,13.09
2023-05-19T00:27:45.108Z,13.08
2023-05-19T00:30:12.405Z,13.07
2023-05-19T00:32:39.453Z,13.06
2023-05-19T00:35:06.987Z,13.05
2023-05-19T00:37:33.950Z,13.03
2023-05-19T00:40:01.228Z,13.03
2023-05-19T00:42:28.202Z,13.02
2023-05-19T00:44:55.331Z,13.04
2023-05-19T00:47:22.330Z,13.04
2023-05-19T00:49:49.233Z,13.01
2023-05-19T00:52:16.439Z,13.02
2023-05-19T00:54:44.738Z,13.02
2023-05-19T00:57:13.748Z,13.00
2023-05-19T00:59:40.921Z,13.01
2023-05-19T01:02:07.978Z,13.00
2023-05-19T01:04:37.967Z,12.97
2023-05-19T01:07:05.745Z,12.98
2023-05-19T01:09:32.623Z,12.98
2023-05-19T01:12:01.279Z,12.98
2023-05-19T01:14:29.276Z,12.99
2023-05-19T01:17:10.070Z,12.97
2023-05-19T01:20:05.232Z,12.96
2023-05-19T01:22:50.395Z,12.94
2023-05-19T01:25:54.818Z,12.93
2023-05-19T01:28:33.934Z,12.91
2023-05-19T01:31:02.056Z,12.90
2023-05-19T01:33:31.309Z,12.88
2023-05-19T01:35:59.550Z,12.88
2023-05-19T01:38:29.571Z,12.87
2023-05-19T01:40:58.167Z,12.86
2023-05-19T01:43:27.280Z,12.85
2023-05-19T01:45:55.199Z,12.82
2023-05-19T01:48:23.253Z,12.82
2023-05-19T01:50:50.535Z,12.81
2023-05-19T01:53:17.816Z,12.79
2023-05-19T01:55:50.867Z,12.80
2023-05-19T01:58:26.058Z,12.77
2023-05-19T02:01:08.306Z,12.75
2023-05-19T02:03:58.367Z,12.75
2023-05-19T02:06:37.830Z,12.74
2023-05-19T02:09:43.588Z,12.74
2023-05-19T02:12:14.531Z,12.69
2023-05-19T02:15:06.377Z,12.68
2023-05-19T02:17:36.535Z,12.68
2023-05-19T02:20:05.390Z,12.68
2023-05-19T02:22:32.750Z,12.66
2023-05-19T02:24:59.803Z,12.63
2023-05-19T02:27:26.891Z,12.63
2023-05-19T02:29:53.927Z,12.63
2023-05-19T02:32:21.309Z,12.62
2023-05-19T02:34:48.395Z,12.62
2023-05-19T02:37:16.118Z,12.61
2023-05-19T02:39:43.684Z,12.62
2023-05-19T02:42:12.168Z,12.62
2023-05-19T02:44:39.042Z,12.59
2023-05-19T02:47:06.000Z,12.60
2023-05-19T02:49:36.213Z,12.60
2023-05-19T02:52:04.021Z,12.60
2023-05-19T02:54:32.147Z,12.62
2023-05-19T02:56:59.377Z,12.59
2023-05-19T02:59:26.330Z,12.62
2023-05-19T03:01:59.455Z,12.62
2023-05-19T03:04:26.424Z,12.60
2023-05-19T03:06:54.359Z,12.60
2023-05-19T03:09:21.403Z,12.61
2023-05-19T03:11:48.308Z,12.58
2023-05-19T03:14:15.209Z,12.58
2023-05-19T03:16:42.375Z,12.57
2023-05-19T03:19:10.176Z,12.57
2023-05-19T03:21:37.613Z,12.55
2023-05-19T03:24:04.687Z,12.52
2023-05-19T03:26:31.743Z,12.51
2023-05-19T03:28:58.664Z,12.52
2023-05-19T03:31:26.904Z,12.52
2023-05-19T03:33:53.875Z,12.52
2023-05-19T03:36:22.194Z,12.51
2023-05-19T03:38:49.173Z,12.49
2023-05-19T03:41:16.127Z,12.50
2023-05-19T03:43:43.078Z,12.50
2023-05-19T03:46:10.046Z,12.48
2023-05-19T03:48:37.098Z,12.48
2023-05-19T03:51:04.537Z,12.47
2023-05-19T03:53:31.492Z,12.47
2023-05-19T03:55:59.572Z,12.46
2023-05-19T03:58:26.960Z,12.47
2023-05-19T04:00:53.860Z,12.48
2023-05-19T04:03:21.227Z,12.47
2023-05-19T04:05:48.335Z,12.45
2023-05-19T04:08:15.242Z,12.45
2023-05-19T04:10:42.165Z,12.47
2023-05-19T04:13:27.862Z,12.46
2023-05-19T04:15:54.869Z,12.47
2023-05-19T04:18:21.834Z,12.48
2023-05-19T04:20:49.019Z,12.46
2023-05-19T04:23:15.869Z,12.48
2023-05-19T04:25:43.229Z,12.48
2023-05-19T04:28:10.080Z,12.50
2023-05-19T04:30:37.109Z,12.52
2023-05-19T04:33:04.856Z,12.50
2023-05-19T04:35:31.916Z,12.51
2023-05-19T04:37:58.742Z,12.51
2023-05-19T04:40:25.674Z,12.52
2023-05-19T04:42:52.555Z,12.52
2023-05-19T04:45:19.817Z,12.53
2023-05-19T04:47:49.502Z,12.54
2023-05-19T04:50:17.065Z,12.56
2023-05-19T04:52:47.459Z,12.57
2023-05-19T04:55:14.495Z,12.58
2023-05-19T04:57:41.773Z,12.59
2023-05-19T05:00:12.890Z,12.59
2023-05-19T05:02:39.902Z,12.60
2023-05-19T05:05:08.024Z,12.62
2023-05-19T05:07:35.069Z,12.62
2023-05-19T05:10:02.043Z,12.63
2023-05-19T05:12:29.273Z,12.64
2023-05-19T05:14:56.385Z,12.64
2023-05-19T05:17:23.535Z,12.66
2023-05-19T05:19:50.779Z,12.67
2023-05-19T05:22:17.914Z,12.68
2023-05-19T05:24:45.103Z,12.69
2023-05-19T05:27:12.103Z,12.69
2023-05-19T05:29:39.168Z,12.72
2023-05-19T05:32:06.598Z,12.72
2023-05-19T05:34:33.853Z,12.73
2023-05-19T05:37:01.161Z,12.74
2023-05-19T05:39:29.046Z,12.75
2023-05-19T05:41:55.943Z,12.77
2023-05-19T05:44:22.950Z,12.78
2023-05-19T05:46:50.116Z,12.79
2023-05-19T05:49:17.296Z,12.81
2023-05-19T05:51:54.245Z,12.81
2023-05-19T05:54:28.929Z,12.83
2023-05-19T05:56:56.089Z,12.85
2023-05-19T05:59:23.091Z,12.87
2023-05-19T06:01:50.046Z,12.87
2023-05-19T06:04:16.956Z,12.89
2023-05-19T06:06:43.822Z,12.91
2023-05-19T06:09:10.675Z,12.93
2023-05-19T06:11:37.605Z,12.94
2023-05-19T06:14:04.491Z,12.98
2023-05-19T06:16:31.577Z,13.00
2023-05-19T06:18:59.128Z,13.04
2023-05-19T06:21:26.270Z,13.06
2023-05-19T06:23:53.444Z,13.10
2023-05-19T06:26:21.062Z,13.12
2023-05-19T06:28:48.008Z,13.17
2023-05-19T06:31:14.907Z,13.23
2023-05-19T06:33:41.845Z,13.27
2023-05-19T06:36:10.241Z,13.32
2023-05-19T06:38:37.126Z,13.38
2023-05-19T06:41:04.080Z,13.45
2023-05-19T06:43:30.965Z,13.52
2023-05-19T06:45:57.987Z,13.59
2023-05-19T06:48:24.878Z,13.65
2023-05-19T06:50:51.917Z,13.74
2023-05-19T06:53:20.105Z,13.82
2023-05-19T06:55:58.753Z,13.91
2023-05-19T06:58:27.297Z,13.97
2023-05-19T07:00:54.263Z,14.01
2023-05-19T07:03:21.461Z,14.05
2023-05-19T07:05:48.600Z,14.08
2023-05-19T07:08:15.501Z,14.13
2023-05-19T07:10:42.460Z,14.14
2023-05-19T07:13:09.385Z,14.19
2023-05-19T07:15:36.319Z,14.22
2023-05-19T07:18:03.265Z,14.23
2023-05-19T07:20:30.431Z,14.26
2023-05-19T07:22:57.521Z,14.29
2023-05-19T07:25:26.414Z,14.31
2023-05-19T07:27:53.293Z,14.35
2023-05-19T07:30:20.199Z,14.38
2023-05-19T07:32:47.069Z,14.41
2023-05-19T07:35:14.187Z,14.44
2023-05-19T07:37:41.626Z,14.49
2023-05-19T07:40:08.928Z,14.51
2023-05-19T07:42:35.880Z,14.54
2023-05-19T07:45:03.629Z,14.56
2023-05-19T07:47:31.405Z,14.59
2023-05-19T07:49:58.363Z,14.60
2023-05-19T07:52:25.623Z,14.62
2023-05-19T07:54:53.252Z,14.65
2023-05-19T07:57:20.346Z,14.67
2023-05-19T07:59:47.363Z,14.68
2023-05-19T08:02:14.317Z,14.71
2023-05-19T08:08:40.117Z,15.46
2023-05-19T08:11:07.735Z,15.46
2023-05-19T08:13:34.922Z,14.94
2023-05-19T08:16:01.746Z,14.97
2023-05-19T08:18:28.580Z,15.04
2023-05-19T08:20:55.374Z,15.10
2023-05-19T08:23:22.560Z,15.17
2023-05-19T08:25:49.337Z,15.24
2023-05-19T08:28:16.134Z,15.32
2023-05-19T08:30:42.927Z,15.42
2023-05-19T08:33:09.793Z,15.55
2023-05-19T08:35:36.652Z,15.67
2023-05-19T08:38:03.434Z,15.79
2023-05-19T08:40:31.908Z,15.90
2023-05-19T08:42:58.941Z,16.03
2023-05-19T08:45:26.960Z,16.16
2023-05-19T08:47:54.290Z,16.27
2023-05-19T08:50:30.721Z,16.37
2023-05-19T08:53:36.804Z,16.49
2023-05-19T08:56:13.100Z,16.60
2023-05-19T08:58:41.516Z,16.69
2023-05-19T09:01:08.659Z,16.77
2023-05-19T09:03:39.360Z,16.84
2023-05-19T09:06:12.598Z,16.93
2023-05-19T09:08:43.754Z,17.01
2023-05-19T09:11:10.825Z,17.08
2023-05-19T09:13:37.830Z,17.15
2023-05-19T09:16:04.942Z,17.23
2023-05-19T09:18:32.112Z,17.30
2023-05-19T09:21:02.590Z,17.38
2023-05-19T09:23:36.377Z,17.48
2023-05-19T09:46:31.018Z,17.66
2023-05-19T09:48:58.906Z,17.88
2023-05-19T09:51:25.862Z,18.04
2023-05-19T09:53:53.638Z,18.21
2023-05-19T09:56:23.837Z,18.33
2023-05-19T09:58:50.713Z,18.45
2023-05-19T10:01:18.060Z,18.58
2023-05-19T10:03:45.131Z,18.68
2023-05-19T10:06:12.082Z,18.79
2023-05-19T10:08:39.981Z,18.89
2023-05-19T10:22:59.060Z,18.88
2023-05-19T10:25:26.353Z,19.07
2023-05-19T10:28:09.418Z,19.21
2023-05-19T10:30:40.835Z,19.39
2023-05-19T10:33:12.302Z,19.55
2023-05-19T10:36:08.438Z,19.70
2023-05-19T10:38:48.380Z,19.86
2023-05-19T10:41:44.995Z,20.02
2023-05-19T11:14:01.834Z,21.44
2023-05-19T11:16:30.227Z,21.44
2023-05-19T11:18:59.877Z,21.05
2023-05-19T11:21:55.327Z,21.17
2023-05-19T11:24:46.310Z,21.32
2023-05-19T11:27:34.902Z,21.48
2023-05-19T11:30:06.756Z,21.62
2023-05-19T11:32:35.047Z,21.73
2023-05-19T11:35:02.532Z,21.84
2023-05-19T11:37:32.439Z,21.92
2023-05-19T11:40:02.421Z,22.02
2023-05-19T11:42:29.277Z,22.10
2023-05-19T11:44:56.573Z,22.21
2023-05-19T11:47:23.737Z,22.32
2023-05-19T11:49:57.760Z,22.44
2023-05-19T11:52:25.655Z,22.53
2023-05-19T11:54:52.613Z,22.64
2023-05-19T11:57:20.141Z,22.72
2023-05-19T11:59:49.820Z,22.81
2023-05-19T12:02:28.062Z,22.89
2023-05-19T12:04:55.117Z,22.98
2023-05-19T12:07:25.184Z,23.06
2023-05-19T12:09:53.021Z,23.17
2023-05-19T12:12:21.257Z,23.24
2023-05-19T12:14:50.676Z,23.31
2023-05-19T12:17:20.387Z,23.37
2023-05-19T12:19:48.968Z,23.40
2023-05-19T12:22:17.547Z,23.46
2023-05-19T12:24:46.385Z,23.52
2023-05-19T12:27:20.022Z,23.60
2023-05-19T12:29:54.924Z,23.69
2023-05-19T12:32:25.869Z,23.76
2023-05-19T12:34:53.544Z,23.84
2023-05-19T12:37:20.575Z,23.91
2023-05-19T12:39:49.188Z,23.97
2023-05-19T12:42:16.735Z,24.02
2023-05-19T12:44:52.461Z,24.06
2023-05-19T12:47:20.363Z,24.08
2023-05-19T12:49:59.293Z,24.13
2023-05-19T12:52:27.902Z,24.17
2023-05-19T12:55:08.135Z,24.23
2023-05-19T12:57:36.328Z,24.28
2023-05-19T13:00:14.835Z,24.32
2023-05-19T13:03:05.807Z,24.36
2023-05-19T13:05:35.414Z,24.38
2023-05-19T13:08:10.386Z,24.42
2023-05-19T13:10:38.717Z,24.47
2023-05-19T13:13:08.012Z,24.54
2023-05-19T13:15:37.803Z,24.60
2023-05-19T13:18:06.874Z,24.63
2023-05-19T13:20:34.416Z,24.66
2023-05-19T13:23:02.082Z,24.70
2023-05-19T13:25:28.859Z,24.76
2023-05-19T13:27:56.763Z,24.79
2023-05-19T13:30:24.447Z,24.85
2023-05-19T13:32:52.605Z,24.91
2023-05-19T13:35:20.112Z,24.94
2023-05-19T13:37:46.955Z,24.98
2023-05-19T13:40:13.960Z,25.00
2023-05-19T13:42:40.840Z,25.02
2023-05-19T13:45:08.242Z,25.04
2023-05-19T13:47:35.240Z,25.05
2023-05-19T13:50:04.605Z,25.07
2023-05-19T13:52:31.826Z,25.09
2023-05-19T13:54:58.662Z,25.12
2023-05-19T13:57:28.042Z,25.16
2023-05-19T14:00:02.663Z,25.18
2023-05-19T14:02:30.203Z,25.20
2023-05-19T14:04:57.572Z,25.22
2023-05-19T14:07:24.426Z,25.24
2023-05-19T14:09:52.481Z,25.28
2023-05-19T14:12:20.207Z,25.32
2023-05-19T14:14:50.242Z,25.36
2023-05-19T14:17:17.109Z,25.38
2023-05-19T14:19:43.953Z,25.43
2023-05-19T14:22:10.840Z,25.46
2023-05-19T14:24:37.574Z,25.50
2023-05-19T14:27:04.510Z,25.55
2023-05-19T14:29:31.332Z,25.58
2023-05-19T14:31:58.217Z,25.62
2023-05-19T14:34:25.086Z,25.65
2023-05-19T14:36:51.955Z,25.68
2023-05-19T14:39:18.918Z,25.71
2023-05-19T14:41:45.821Z,25.73
2023-05-19T14:44:12.593Z,25.77
2023-05-19T14:46:39.385Z,25.80
2023-05-19T14:49:06.678Z,25.84
2023-05-19T14:51:33.501Z,25.88
2023-05-19T14:54:02.123Z,25.93
2023-05-19T14:56:29.052Z,25.95
2023-05-19T14:58:56.457Z,25.97
2023-05-19T15:01:23.480Z,25.97
2023-05-19T15:03:50.393Z,25.96
2023-05-19T15:06:17.190Z,25.95
2023-05-19T15:08:44.129Z,25.91
2023-05-19T15:11:10.886Z,25.88
2023-05-19T15:13:37.653Z,25.86
2023-05-19T15:16:15.607Z,25.82
2023-05-19T15:18:43.672Z,25.78
2023-05-19T15:21:10.679Z,25.75
2023-05-19T15:23:37.514Z,25.72
2023-05-19T15:26:04.455Z,25.70
2023-05-19T15:28:31.320Z,25.68
2023-05-19T15:30:58.126Z,25.64
2023-05-19T15:33:24.900Z,25.63
2023-05-19T15:35:52.402Z,25.61
2023-05-19T15:38:19.708Z,25.59
2023-05-19T15:40:46.956Z,25.58
2023-05-19T15:43:14.230Z,25.54
2023-05-19T15:45:41.107Z,25.52
2023-05-19T15:48:08.410Z,25.50
2023-05-19T15:50:36.300Z,25.47
2023-05-19T15:53:03.563Z,25.45
2023-05-19T15:55:30.514Z,25.42
2023-05-19T15:57:57.304Z,25.39
2023-05-19T16:00:24.081Z,25.37
2023-05-19T16:02:51.171Z,25.36
2023-05-19T16:05:18.370Z,25.32
2023-05-19T16:07:45.263Z,25.29
2023-05-19T16:10:12.178Z,25.26
2023-05-19T16:12:39.069Z,25.22
2023-05-19T16:15:06.361Z,25.18
2023-05-19T16:17:33.310Z,25.16
2023-05-19T16:20:00.256Z,25.11
2023-05-19T16:22:27.292Z,25.09
2023-05-19T16:24:54.095Z,25.06
2023-05-19T16:27:20.953Z,25.06
2023-05-19T16:29:47.729Z,25.03
2023-05-19T16:32:14.610Z,25.00
2023-05-19T16:34:41.442Z,24.97
2023-05-19T16:37:08.252Z,24.92
2023-05-19T16:39:38.330Z,24.90
2023-05-19T16:42:05.317Z,24.85
2023-05-19T16:44:32.119Z,24.81
2023-05-19T16:46:58.993Z,24.78
2023-05-19T16:49:25.792Z,24.73
2023-05-19T16:51:53.240Z,24.71
2023-05-19T16:54:21.017Z,24.67
2023-05-19T16:56:47.934Z,24.65
2023-05-19T16:59:14.713Z,24.61
2023-05-19T17:01:41.835Z,24.60
2023-05-19T17:04:08.887Z,24.58
2023-05-19T17:06:35.954Z,24.57
2023-05-19T17:09:03.004Z,24.55
2023-05-19T17:11:29.865Z,24.52
2023-05-19T17:13:56.714Z,24.50
2023-05-19T17:16:24.023Z,24.48
2023-05-19T17:18:51.561Z,24.44
2023-05-19T17:21:18.490Z,24.40
2023-05-19T17:23:45.652Z,24.36
2023-05-19T17:26:12.421Z,24.30
2023-05-19T17:28:39.169Z,24.25
2023-05-19T17:31:12.892Z,24.19
2023-05-19T17:33:40.279Z,24.14
2023-05-19T17:36:08.741Z,24.09
2023-05-19T17:38:40.161Z,24.05
2023-05-19T17:41:11.024Z,23.98
2023-05-19T17:43:38.461Z,23.92
2023-05-19T17:46:05.479Z,23.86
2023-05-19T17:48:32.956Z,23.81
2023-05-19T17:50:59.986Z,23.74
2023-05-19T17:53:27.105Z,23.65
2023-05-19T17:55:58.915Z,23.59
2023-05-19T17:58:26.650Z,23.49
2023-05-19T18:00:54.289Z,23.42
2023-05-19T18:03:22.299Z,23.35
2023-05-19T18:05:51.123Z,23.28
2023-05-19T18:08:18.734Z,23.20
2023-05-19T18:10:46.316Z,23.11
2023-05-19T18:13:16.194Z,23.04
2023-05-19T18:15:43.105Z,22.96
2023-05-19T18:18:10.965Z,22.85
2023-05-19T18:20:38.826Z,22.78
2023-05-19T18:23:06.051Z,22.69
2023-05-19T18:25:32.879Z,22.57
2023-05-19T18:27:59.626Z,22.46
2023-05-19T18:30:26.419Z,22.37
2023-05-19T18:32:53.214Z,22.25
2023-05-19T18:35:21.165Z,22.14
2023-05-19T18:37:48.004Z,22.03
2023-05-19T18:40:14.793Z,21.93
2023-05-19T18:42:41.537Z,21.84
2023-05-19T18:45:08.716Z,21.73
2023-05-19T18:47:35.627Z,21.66
2023-05-19T18:50:02.442Z,21.57
2023-05-19T18:52:30.921Z,21.48
2023-05-19T18:54:57.926Z,21.43
2023-05-19T18:57:24.688Z,21.36
2023-05-19T18:59:51.679Z,21.26
2023-05-19T19:02:18.536Z,21.22
2023-05-19T19:04:45.445Z,21.16
2023-05-19T19:07:12.438Z,21.09
2023-05-19T19:09:39.625Z,21.00
2023-05-19T19:12:06.853Z,20.94
2023-05-19T19:14:33.768Z,20.87
2023-05-19T19:17:00.840Z,20.78
2023-05-19T19:19:30.036Z,20.71
2023-05-19T19:21:57.136Z,20.64
2023-05-19T19:24:23.953Z,20.58
2023-05-19T19:26:50.715Z,20.51
2023-05-19T19:29:18.320Z,20.43
2023-05-19T19:31:45.321Z,20.35
2023-05-19T19:34:12.146Z,20.29
2023-05-19T19:36:38.965Z,20.19
2023-05-19T19:39:05.862Z,20.14
2023-05-19T19:41:33.492Z,20.08
2023-05-19T19:44:00.479Z,20.05
2023-05-19T19:46:27.363Z,19.95
2023-05-19T19:48:57.306Z,19.90
2023-05-19T19:51:24.154Z,19.83
2023-05-19T19:53:50.966Z,19.79
2023-05-19T19:56:17.804Z,19.75
2023-05-19T19:58:44.712Z,19.68
2023-05-19T20:01:11.736Z,19.60
2023-05-19T20:03:39.012Z,19.58
2023-05-19T20:06:05.972Z,19.49
2023-05-19T20:08:32.796Z,19.43
2023-05-19T20:10:59.615Z,19.38
2023-05-19T20:13:26.480Z,19.33
2023-05-19T20:15:53.279Z,19.26
2023-05-19T20:18:20.248Z,19.22
2023-05-19T20:20:47.028Z,19.17
2023-05-19T20:23:16.274Z,19.14
2023-05-19T20:25:54.772Z,19.08
2023-05-19T20:28:29.589Z,18.99
2023-05-19T20:30:56.504Z,18.93
2023-05-19T20:33:23.356Z,18.90
2023-05-19T20:35:50.148Z,18.86
2023-05-19T20:38:16.877Z,18.80
2023-05-19T20:40:43.770Z,18.73
2023-05-19T20:43:10.519Z,18.68
2023-05-19T20:45:37.430Z,18.65
2023-05-19T20:48:04.904Z,18.57
2023-05-19T20:50:32.004Z,18.55
2023-05-19T20:52:58.995Z,18.49
2023-05-19T20:55:25.841Z,18.45
2023-05-19T20:57:52.663Z,18.41
2023-05-19T21:00:19.488Z,18.33
2023-05-19T21:02:46.294Z,18.29
2023-05-19T21:05:13.175Z,18.24
2023-05-19T21:07:40.042Z,18.18
2023-05-19T21:10:07.381Z,18.18
2023-05-19T21:12:35.301Z,18.09
2023-05-19T21:15:02.296Z,18.05
2023-05-19T21:17:29.587Z,17.98
2023-05-19T21:19:59.534Z,17.92
2023-05-19T21:22:27.077Z,17.93
2023-05-19T21:24:54.382Z,17.90
2023-05-19T21:27:21.617Z,17.88
2023-05-19T21:29:55.274Z,17.82
2023-05-19T21:32:22.206Z,17.80
2023-05-19T21:34:48.964Z,17.77
2023-05-19T21:37:17.383Z,17.75
2023-05-19T21:39:44.603Z,17.72
2023-05-19T21:42:11.441Z,17.71
2023-05-19T21:44:38.277Z,17.67
2023-05-19T21:47:05.163Z,17.63
2023-05-19T21:49:31.923Z,17.58
2023-05-19T21:51:58.689Z,17.55
2023-05-19T21:54:25.460Z,17.54
2023-05-19T21:56:52.277Z,17.48
2023-05-19T21:59:23.189Z,17.48
2023-05-19T22:01:50.440Z,17.42
2023-05-19T22:04:18.767Z,17.39
2023-05-19T22:06:45.768Z,17.33
2023-05-19T22:09:13.092Z,17.29
2023-05-19T22:11:40.148Z,17.27
2023-05-19T22:14:07.108Z,17.26
2023-05-19T22:16:34.119Z,17.23
2023-05-19T22:19:01.036Z,17.19
2023-05-19T22:21:27.967Z,17.17
2023-05-19T22:23:54.856Z,17.16
2023-05-19T22:26:22.213Z,17.13
2023-05-19T22:28:50.294Z,17.10
2023-05-19T22:31:17.757Z,17.07
2023-05-19T22:33:44.949Z,17.06
2023-05-19T22:36:11.767Z,17.03
2023-05-19T22:38:38.565Z,17.02
2023-05-19T22:41:05.617Z,17.00
2023-05-19T22:43:32.406Z,16.98
2023-05-19T22:45:59.191Z,16.97
2023-05-19T22:48:26.160Z,16.96
2023-05-19T22:50:52.970Z,16.96
2023-05-19T22:53:19.748Z,16.92
2023-05-19T22:55:46.662Z,16.91
2023-05-19T22:58:13.495Z,16.88
2023-05-19T23:00:40.564Z,16.86
2023-05-19T23:03:07.469Z,16.84
2023-05-19T23:05:34.555Z,16.81
2023-05-19T23:08:01.613Z,16.78
2023-05-19T23:10:28.428Z,16.76
2023-05-19T23:12:55.262Z,16.75
2023-05-19T23:15:22.119Z,16.74
2023-05-19T23:17:48.923Z,16.75
2023-05-19T23:20:15.815Z,16.72
2023-05-19T23:22:42.702Z,16.72
2023-05-19T23:25:09.754Z,16.69
2023-05-19T23:27:36.670Z,16.70
2023-05-19T23:30:04.221Z,16.69
2023-05-19T23:32:31.083Z,16.67
2023-05-19T23:34:57.953Z,16.66
2023-05-19T23:37:24.898Z,16.64
2023-05-19T23:39:51.717Z,16.61
2023-05-19T23:42:18.543Z,16.58
2023-05-19T23:44:45.661Z,16.57
2023-05-19T23:47:12.426Z,16.58
2023-05-19T23:49:39.209Z,16.56
2023-05-19T23:52:06.495Z,16.54
2023-05-19T23:54:33.272Z,16.53
2023-05-19T23:57:02.225Z,16.50
2023-05-19T23:59:29.008Z,16.47
